Time;durP1;ratioP1;P1;durP2;ratioP2;P2;SDS_P1;SDS_P2;PMS_P1;PMS_P2;Temp;Humidity;BMP_temperature;BMP_pressure;BME280_temperature;BME280_humidity;BME280_pressure;Samples;Min_cycle;Max_cycle;Signal;HPM_P1;HPM_P2
2023/06/29 00:01:58;;;;;;;21.10;19.30;;;;;;;19.22;100.00;101570.34;5013058;28;20947;-43
2023/06/29 00:04:26;;;;;;;24.77;22.33;;;;;;;19.15;100.00;101564.22;5013534;28;20433;-49
2023/06/29 00:06:55;;;;;;;26.60;24.30;;;;;;;19.15;100.00;101561.50;5013592;28;20523;-50
2023/06/29 00:09:23;;;;;;;25.13;22.93;;;;;;;19.14;100.00;101567.16;5012907;28;20473;-45
2023/06/29 00:11:51;;;;;;;24.47;22.10;;;;;;;19.13;100.00;101563.63;5012871;28;20437;-45
2023/06/29 00:14:18;;;;;;;26.23;23.93;;;;;;;19.12;100.00;101575.50;5013179;28;20468;-44
2023/06/29 00:16:50;;;;;;;24.97;22.77;;;;;;;19.14;100.00;101567.16;5013275;28;20441;-44
2023/06/29 00:19:20;;;;;;;27.30;24.77;;;;;;;19.15;100.00;101571.50;5012844;28;20472;-46
2023/06/29 00:21:48;;;;;;;27.63;25.10;;;;;;;19.17;100.00;101570.22;5013099;28;20437;-44
2023/06/29 00:24:17;;;;;;;25.20;23.10;;;;;;;19.17;100.00;101572.94;5013187;28;20836;-44
2023/06/29 00:26:45;;;;;;;26.77;24.50;;;;;;;19.16;100.00;101565.03;5012871;28;20476;-44
2023/06/29 00:29:12;;;;;;;30.87;27.63;;;;;;;19.16;100.00;101560.47;5012698;28;20523;-44
2023/06/29 00:31:40;;;;;;;26.53;24.37;;;;;;;19.16;100.00;101570.44;5012986;28;20478;-45
2023/06/29 00:34:08;;;;;;;27.80;25.40;;;;;;;19.16;100.00;101568.56;5013001;28;20436;-44
2023/06/29 00:36:36;;;;;;;28.83;25.37;;;;;;;19.16;100.00;101563.16;5012884;28;20433;-45
2023/06/29 00:39:04;;;;;;;28.80;25.07;;;;;;;19.18;100.00;101557.50;5012385;28;20511;-47
2023/06/29 00:41:33;;;;;;;30.00;27.13;;;;;;;19.17;100.00;101556.72;5012209;28;20433;-45
2023/06/29 00:44:01;;;;;;;28.57;25.97;;;;;;;19.20;100.00;101558.13;5012637;28;20907;-46
2023/06/29 00:46:29;;;;;;;29.10;26.43;;;;;;;19.20;100.00;101553.50;5012404;28;20440;-48
2023/06/29 00:48:56;;;;;;;27.87;25.30;;;;;;;19.21;100.00;101548.94;5011258;28;20551;-46
2023/06/29 00:51:24;;;;;;;32.30;29.20;;;;;;;19.18;100.00;101543.97;5012282;28;20527;-42
2023/06/29 00:53:52;;;;;;;33.17;29.90;;;;;;;19.16;100.00;101544.22;5012459;28;20461;-43
2023/06/29 00:56:20;;;;;;;31.77;28.77;;;;;;;19.16;100.00;101544.22;5012430;28;20441;-45
2023/06/29 00:58:49;;;;;;;28.87;25.87;;;;;;;19.15;100.00;101547.97;5012358;28;21160;-48
2023/06/29 01:01:17;;;;;;;30.17;27.50;;;;;;;19.15;100.00;101536.34;5012303;28;20452;-48
2023/06/29 01:03:45;;;;;;;31.20;28.23;;;;;;;19.15;100.00;101534.47;5012404;28;20468;-47
2023/06/29 01:06:17;;;;;;;31.73;29.13;;;;;;;19.13;100.00;101531.19;5012209;28;20429;-48
2023/06/29 01:08:51;;;;;;;30.03;27.20;;;;;;;19.15;100.00;101530.94;5011809;28;20534;-45
2023/06/29 01:11:21;;;;;;;32.17;29.27;;;;;;;19.12;100.00;101529.53;5012225;28;20456;-48
2023/06/29 01:13:53;;;;;;;31.70;28.90;;;;;;;19.10;100.00;101531.66;5011953;28;20855;-48
2023/06/29 01:16:22;;;;;;;30.43;27.60;;;;;;;19.08;100.00;101519.44;5012169;28;20830;-50
2023/06/29 01:18:52;;;;;;;33.37;29.97;;;;;;;19.09;100.00;101521.06;5011571;28;20468;-45
2023/06/29 01:21:21;;;;;;;30.13;27.60;;;;;;;19.11;100.00;101522.50;5023237;28;20497;-48
2023/06/29 01:23:52;;;;;;;29.77;26.73;;;;;;;19.13;100.00;101511.44;5023838;28;20464;-50
2023/06/29 01:26:22;;;;;;;31.47;28.60;;;;;;;19.15;100.00;101517.41;5031658;28;20427;-45
2023/06/29 01:28:51;;;;;;;32.40;29.60;;;;;;;19.14;100.00;101504.97;5031321;28;20467;-45
2023/06/29 01:31:19;;;;;;;30.80;27.87;;;;;;;19.13;100.00;101514.97;5031514;28;20451;-45
2023/06/29 01:33:47;;;;;;;32.83;29.83;;;;;;;19.17;100.00;101507.22;5031254;28;20443;-48
2023/06/29 01:36:21;;;;;;;30.60;28.03;;;;;;;19.17;100.00;101505.34;5031526;28;20467;-47
2023/06/29 01:38:57;;;;;;;33.53;30.50;;;;;;;19.16;100.00;101506.38;5031164;28;20494;-43
2023/06/29 01:41:27;;;;;;;32.53;29.30;;;;;;;19.19;100.00;101505.09;5031499;28;20459;-44
2023/06/29 01:43:56;;;;;;;29.67;27.17;;;;;;;19.19;100.00;101500.50;5031501;28;20485;-45
2023/06/29 01:46:24;;;;;;;30.87;27.77;;;;;;;19.20;100.00;101499.44;5031771;28;20436;-43
2023/06/29 01:48:52;;;;;;;31.93;28.97;;;;;;;19.18;100.00;101498.84;5031105;28;20547;-46
2023/06/29 01:51:20;;;;;;;31.93;28.80;;;;;;;19.20;100.00;101491.31;5031240;28;20519;-47
2023/06/29 01:53:49;;;;;;;33.20;30.07;;;;;;;19.18;100.00;101493.44;5030653;28;20474;-50
2023/06/29 01:56:17;;;;;;;37.27;33.77;;;;;;;19.22;100.00;101493.81;5024041;28;20428;-45
2023/06/29 01:58:46;;;;;;;34.43;31.07;;;;;;;19.22;100.00;101491.09;5031020;28;20993;-50
2023/06/29 02:01:14;;;;;;;36.50;33.20;;;;;;;19.20;100.00;101480.50;5033332;28;20530;-49
2023/06/29 02:03:42;;;;;;;35.33;31.90;;;;;;;19.20;100.00;101494.03;5035376;28;21013;-51
2023/06/29 02:06:10;;;;;;;35.90;32.50;;;;;;;19.23;100.00;101492.75;5035505;28;20427;-49
2023/06/29 02:08:38;;;;;;;33.90;30.50;;;;;;;19.22;100.00;101483.81;5034608;28;20513;-43
2023/06/29 02:11:06;;;;;;;36.93;33.53;;;;;;;19.20;100.00;101491.31;5035642;28;20479;-48
2023/06/29 02:13:34;;;;;;;37.20;33.70;;;;;;;19.19;100.00;101486.16;5035131;28;20925;-49
2023/06/29 02:16:03;;;;;;;37.73;34.23;;;;;;;19.19;100.00;101481.56;5035525;28;20522;-47
2023/06/29 02:18:31;;;;;;;36.90;33.00;;;;;;;19.20;100.00;101485.91;5034831;28;20461;-46
2023/06/29 02:20:58;;;;;;;34.67;31.37;;;;;;;19.22;100.00;101483.81;5035002;28;20974;-45
2023/06/29 02:23:26;;;;;;;35.90;32.50;;;;;;;19.20;100.00;101479.69;5026573;28;20504;-43
2023/06/29 02:25:54;;;;;;;34.40;31.30;;;;;;;19.21;100.00;101478.63;5035261;28;20431;-43
2023/06/29 02:28:21;;;;;;;34.93;31.77;;;;;;;19.22;100.00;101481.09;5035085;28;20439;-45
2023/06/29 02:30:49;;;;;;;34.17;31.03;;;;;;;19.21;100.00;101484.03;5034625;28;20478;-46
2023/06/29 02:33:18;;;;;;;33.27;29.97;;;;;;;19.22;100.00;101477.56;5034770;28;20462;-48
2023/06/29 02:35:46;;;;;;;37.37;33.90;;;;;;;19.22;100.00;101486.50;5034954;28;20471;-42
2023/06/29 02:38:14;;;;;;;35.60;32.10;;;;;;;19.25;100.00;101477.94;5034701;28;20431;-44
2023/06/29 02:40:42;;;;;;;36.60;33.40;;;;;;;19.24;100.00;101476.28;5034660;28;20455;-45
2023/06/29 02:43:10;;;;;;;41.27;36.93;;;;;;;19.21;100.00;101473.22;5034711;28;20427;-46
2023/06/29 02:45:38;;;;;;;39.63;35.80;;;;;;;19.21;100.00;101467.81;5034899;28;20638;-47
2023/06/29 02:48:06;;;;;;;41.27;36.77;;;;;;;19.23;100.00;101473.81;5034708;28;20992;-47
2023/06/29 02:50:35;;;;;;;40.87;36.60;;;;;;;19.22;100.00;101474.88;5033993;28;20889;-45
2023/06/29 02:53:02;;;;;;;43.57;39.27;;;;;;;19.24;100.00;101476.28;5034621;28;20505;-50
2023/06/29 02:55:31;;;;;;;42.23;38.10;;;;;;;19.26;100.00;101482.25;5034596;28;20443;-44
2023/06/29 02:57:59;;;;;;;40.43;36.40;;;;;;;19.25;100.00;101475.22;5034599;28;20428;-48
2023/06/29 03:00:26;;;;;;;38.87;35.33;;;;;;;19.25;100.00;101477.94;5034007;28;20460;-44
2023/06/29 03:02:54;;;;;;;38.57;34.87;;;;;;;19.24;100.00;101472.75;5034250;28;20846;-43
2023/06/29 03:05:22;;;;;;;37.50;34.10;;;;;;;19.25;100.00;101477.94;5034384;28;20957;-47
2023/06/29 03:07:51;;;;;;;40.67;36.83;;;;;;;19.26;100.00;101476.06;5034316;28;20926;-50
2023/06/29 03:10:19;;;;;;;44.03;39.57;;;;;;;19.26;100.00;101482.25;5033686;28;20920;-50
2023/06/29 03:12:46;;;;;;;37.00;33.63;;;;;;;19.26;100.00;101476.06;5033243;28;20435;-48
2023/06/29 03:15:14;;;;;;;38.20;34.57;;;;;;;19.27;100.00;101474.97;5034282;28;20470;-49
2023/06/29 03:17:41;;;;;;;41.87;37.67;;;;;;;19.31;100.00;101479.69;5034000;28;20942;-46
2023/06/29 03:20:13;;;;;;;39.20;35.30;;;;;;;19.32;100.00;101477.81;5033526;28;20472;-44
2023/06/29 03:22:40;;;;;;;38.00;34.37;;;;;;;19.31;100.00;101476.16;5026548;28;20432;-47
2023/06/29 03:25:11;;;;;;;43.67;37.40;;;;;;;19.32;100.00;101481.31;5033516;28;20497;-44
2023/06/29 03:27:39;;;;;;;37.70;34.20;;;;;;;19.36;100.00;101487.09;5033934;28;20450;-45
2023/06/29 03:30:08;;;;;;;38.73;35.27;;;;;;;19.38;100.00;101484.16;5033219;28;20482;-45
2023/06/29 03:32:35;;;;;;;37.50;33.40;;;;;;;19.42;100.00;101477.22;5033795;28;20513;-42
2023/06/29 03:35:04;;;;;;;38.20;34.10;;;;;;;19.44;100.00;101475.13;5033684;28;20527;-45
2023/06/29 03:37:32;;;;;;;37.63;34.13;;;;;;;19.48;100.00;101469.00;5033435;28;20485;-45
2023/06/29 03:39:59;;;;;;;38.30;34.53;;;;;;;19.51;100.00;101473.94;5033276;28;20471;-45
2023/06/29 03:42:28;;;;;;;37.50;33.93;;;;;;;19.54;100.00;101476.16;5033901;28;20435;-47
2023/06/29 03:44:56;;;;;;;39.10;35.10;;;;;;;19.59;100.00;101470.84;5033882;28;20459;-43
2023/06/29 03:47:24;;;;;;;39.03;35.53;;;;;;;19.60;100.00;101477.09;5033815;28;20492;-45
2023/06/29 03:49:52;;;;;;;37.57;33.97;;;;;;;19.59;100.00;101468.13;5033081;28;20507;-45
2023/06/29 03:52:19;;;;;;;36.83;33.10;;;;;;;19.64;100.00;101472.84;5033222;28;20471;-44
2023/06/29 03:54:48;;;;;;;43.23;39.00;;;;;;;19.63;100.00;101466.63;5033560;28;20518;-47
2023/06/29 03:57:16;;;;;;;41.27;37.17;;;;;;;19.65;100.00;101455.56;5033271;28;20427;-43
2023/06/29 03:59:45;;;;;;;41.83;38.03;;;;;;;19.70;100.00;101461.91;5032832;28;20490;-44
2023/06/29 04:02:13;;;;;;;40.10;36.30;;;;;;;19.74;100.00;101454.13;5033263;28;20428;-45
2023/06/29 04:04:41;;;;;;;44.87;40.17;;;;;;;19.75;100.00;101453.06;5033313;28;20805;-45
2023/06/29 04:07:08;;;;;;;41.57;37.40;;;;;;;19.75;100.00;101451.19;5033268;28;20802;-44
2023/06/29 04:09:36;;;;;;;42.97;38.70;;;;;;;19.78;100.00;101458.00;5032504;28;21060;-45
2023/06/29 04:12:05;;;;;;;43.77;39.30;;;;;;;19.85;100.00;101454.09;5033175;28;20813;-46
2023/06/29 04:14:33;;;;;;;43.27;39.30;;;;;;;19.87;100.00;101449.25;5033362;28;20431;-44
2023/06/29 04:17:02;;;;;;;45.83;41.53;;;;;;;19.89;100.00;101443.63;5033046;28;20464;-44
2023/06/29 04:19:30;;;;;;;46.03;41.17;;;;;;;19.93;100.00;101441.22;5032615;28;20472;-46
2023/06/29 04:21:58;;;;;;;47.13;42.13;;;;;;;19.96;100.00;101444.28;5030983;28;20432;-44
2023/06/29 04:24:25;;;;;;;47.00;41.90;;;;;;;19.98;100.00;101442.13;5026516;28;20460;-45
2023/06/29 04:26:53;;;;;;;43.30;38.93;;;;;;;20.05;100.00;101442.00;5032737;28;20483;-46
2023/06/29 04:29:21;;;;;;;44.50;39.80;;;;;;;20.07;100.00;101429.88;5032356;28;20463;-45
2023/06/29 04:31:50;;;;;;;45.57;41.37;;;;;;;20.13;100.00;101438.94;5032625;28;20475;-43
2023/06/29 04:34:19;;;;;;;47.00;42.40;;;;;;;20.17;100.00;101424.66;5032691;28;20432;-44
2023/06/29 04:36:47;;;;;;;43.60;39.30;;;;;;;20.17;100.00;101432.78;5032565;28;20771;-46
2023/06/29 04:39:15;;;;;;;43.47;39.13;;;;;;;20.23;100.00;101428.25;5032286;28;20880;-44
2023/06/29 04:41:43;;;;;;;45.27;40.87;;;;;;;20.27;100.00;101427.59;5032401;28;20514;-46
2023/06/29 04:44:11;;;;;;;44.47;40.27;;;;;;;20.33;100.00;101426.59;5032718;28;20462;-45
2023/06/29 04:46:39;;;;;;;44.30;39.50;;;;;;;20.39;100.00;101431.03;5032546;28;20463;-49
2023/06/29 04:49:09;;;;;;;46.00;41.40;;;;;;;20.41;100.00;101428.91;5031911;28;20518;-44
2023/06/29 04:51:38;;;;;;;41.57;37.70;;;;;;;20.43;100.00;101420.50;5032059;28;20478;-47
2023/06/29 04:54:06;;;;;;;46.40;41.50;;;;;;;20.40;100.00;101421.00;5032627;28;20432;-47
2023/06/29 04:56:34;;;;;;;45.33;40.80;;;;;;;20.38;100.00;101421.25;5032430;28;20431;-48
2023/06/29 04:59:02;;;;;;;46.43;41.60;;;;;;;20.35;100.00;101415.50;5031694;28;20993;-44
2023/06/29 05:01:29;;;;;;;45.83;40.93;;;;;;;20.40;100.00;101421.00;5031951;28;20427;-49
2023/06/29 05:03:57;;;;;;;44.93;40.53;;;;;;;20.50;100.00;101423.91;5032084;28;20813;-44
2023/06/29 05:06:29;;;;;;;45.03;40.60;;;;;;;20.62;100.00;101424.66;5032338;28;20444;-44
2023/06/29 05:08:58;;;;;;;47.00;42.63;;;;;;;20.77;100.00;101415.94;5031598;28;20464;-46
2023/06/29 05:11:25;;;;;;;44.00;40.10;;;;;;;20.84;100.00;101419.31;5031701;28;20472;-42
2023/06/29 05:13:53;;;;;;;45.00;40.50;;;;;;;20.92;100.00;101427.00;5032066;28;20455;-48
2023/06/29 05:16:21;;;;;;;43.70;39.20;;;;;;;21.07;100.00;101424.53;5031863;28;20446;-47
2023/06/29 05:18:49;;;;;;;47.17;42.60;;;;;;;21.16;100.00;101427.66;5031719;28;20467;-44
2023/06/29 05:21:17;;;;;;;48.67;43.37;;;;;;;21.21;100.00;101420.41;5031814;28;20502;-43
2023/06/29 05:23:44;;;;;;;48.67;43.97;;;;;;;21.34;100.00;101416.53;5023550;28;20432;-45
2023/06/29 05:26:13;;;;;;;45.60;40.70;;;;;;;21.42;100.00;101416.06;5031665;28;20481;-45
2023/06/29 05:28:41;;;;;;;47.83;42.83;;;;;;;21.44;100.00;101422.88;5031360;28;20436;-45
2023/06/29 05:31:22;;;;;;;44.77;40.23;;;;;;;21.50;100.00;101408.31;5031579;28;20533;-49
2023/06/29 05:33:50;;;;;;;46.77;42.33;;;;;;;21.59;100.00;101418.75;5032050;28;20641;-48
2023/06/29 05:36:17;;;;;;;48.37;43.40;;;;;;;21.67;100.00;101408.25;5031601;28;20439;-44
2023/06/29 05:38:45;;;;;;;47.23;42.43;;;;;;;21.80;100.00;101410.56;5031195;28;20535;-47
2023/06/29 05:41:14;;;;;;;45.33;40.90;;;;;;;21.95;100.00;101415.41;5031392;28;20961;-45
2023/06/29 05:43:42;;;;;;;47.00;42.50;;;;;;;22.10;100.00;101417.44;5031587;28;20431;-45
2023/06/29 05:46:10;;;;;;;48.37;43.67;;;;;;;22.12;100.00;101410.69;5031629;28;20497;-46
2023/06/29 05:48:38;;;;;;;47.10;42.60;;;;;;;22.20;100.00;101415.66;5031115;28;21008;-44
2023/06/29 05:51:06;;;;;;;49.73;44.83;;;;;;;22.24;100.00;101419.50;5031577;28;20553;-47
2023/06/29 05:53:33;;;;;;;44.27;40.27;;;;;;;22.31;100.00;101413.84;5031445;28;20932;-43
2023/06/29 05:56:01;;;;;;;50.83;44.83;;;;;;;22.18;100.00;101420.53;5031418;28;20486;-43
2023/06/29 05:58:30;;;;;;;47.63;42.50;;;;;;;22.15;100.00;101415.59;5031239;28;20432;-45
2023/06/29 06:00:58;;;;;;;44.70;40.40;;;;;;;22.12;100.00;101418.00;5031601;28;20518;-46
2023/06/29 06:03:26;;;;;;;44.00;39.60;;;;;;;22.19;100.00;101416.72;5031296;28;20500;-45
2023/06/29 06:05:53;;;;;;;47.30;42.60;;;;;;;22.28;100.00;101419.81;5031545;28;20517;-44
2023/06/29 06:08:21;;;;;;;49.90;44.90;;;;;;;22.46;100.00;101414.00;5031278;28;20432;-44
2023/06/29 06:10:49;;;;;;;47.77;43.17;;;;;;;22.57;100.00;101411.09;5031290;28;20807;-47
2023/06/29 06:13:17;;;;;;;51.20;45.97;;;;;;;22.78;100.00;101414.00;5031327;28;20515;-45
2023/06/29 06:15:46;;;;;;;46.00;41.60;;;;;;;22.86;100.00;101411.59;5031498;28;20470;-43
2023/06/29 06:18:14;;;;;;;44.53;40.20;;;;;;;23.03;100.00;101406.00;5031729;28;20440;-44
2023/06/29 06:20:42;;;;;;;44.50;40.10;;;;;;;23.21;100.00;101419.16;5030618;28;20483;-43
2023/06/29 06:23:10;;;;;;;41.13;37.03;;;;;;;23.39;100.00;101418.75;5022686;28;20430;-45
2023/06/29 06:25:38;;;;;;;45.63;41.13;;;;;;;23.39;100.00;101410.56;5031353;28;20496;-43
2023/06/29 06:28:05;;;;;;;40.70;37.00;;;;;;;23.63;100.00;101410.94;5031156;28;20949;-45
2023/06/29 06:30:33;;;;;;;42.00;37.80;;;;;;;24.10;100.00;101405.38;5030660;28;20468;-44
2023/06/29 06:33:04;;;;;;;38.90;35.40;;;;;;;24.92;100.00;101398.88;5030939;28;20432;-43
2023/06/29 06:35:32;;;;;;;45.10;40.80;;;;;;;25.55;100.00;101394.59;5031103;28;20436;-44
2023/06/29 06:38:00;;;;;;;39.60;36.00;;;;;;;26.14;100.00;101386.31;5031122;28;20957;-46
2023/06/29 06:40:27;;;;;;;37.17;33.50;;;;;;;26.42;100.00;101391.06;5030580;28;20985;-46
2023/06/29 06:42:55;;;;;;;39.60;35.93;;;;;;;26.13;100.00;101384.69;5031045;28;20976;-45
2023/06/29 06:45:26;;;;;;;40.17;36.27;;;;;;;25.70;100.00;101386.31;5031250;28;20508;-45
2023/06/29 06:47:53;;;;;;;35.87;32.53;;;;;;;25.44;100.00;101385.63;5032144;28;20526;-45
2023/06/29 06:50:22;;;;;;;36.13;32.97;;;;;;;25.37;100.00;101379.63;5034081;28;21003;-45
2023/06/29 06:52:50;;;;;;;34.47;31.37;;;;;;;25.33;100.00;101385.94;5034557;28;20479;-45
2023/06/29 06:55:18;;;;;;;34.30;30.90;;;;;;;25.49;100.00;101387.53;5034763;28;21079;-44
2023/06/29 06:57:47;;;;;;;33.93;30.30;;;;;;;25.59;100.00;101385.56;5034530;28;20431;-43
2023/06/29 07:00:15;;;;;;;30.93;27.83;;;;;;;25.78;100.00;101381.09;5034017;28;20513;-42
2023/06/29 07:02:44;;;;;;;31.00;27.67;;;;;;;26.00;100.00;101379.88;5034126;28;20439;-45
2023/06/29 07:05:12;;;;;;;31.03;28.00;;;;;;;26.10;100.00;101377.06;5034428;28;20489;-45
2023/06/29 07:07:41;;;;;;;29.83;27.13;;;;;;;26.17;100.00;101385.78;5034305;28;21017;-44
2023/06/29 07:10:10;;;;;;;29.33;26.47;;;;;;;26.14;100.00;101384.41;5034031;28;20471;-44
2023/06/29 07:12:38;;;;;;;25.30;22.90;;;;;;;26.17;100.00;101374.84;5033976;28;20471;-45
2023/06/29 07:15:07;;;;;;;30.00;27.10;;;;;;;25.97;100.00;101374.97;5034181;28;20439;-42
2023/06/29 07:17:34;;;;;;;31.57;28.17;;;;;;;26.04;100.00;101370.00;5034384;28;20554;-45
2023/06/29 07:20:03;;;;;;;28.97;26.27;;;;;;;26.37;100.00;101375.50;5033605;28;20466;-45
2023/06/29 07:22:34;;;;;;;29.80;26.77;;;;;;;26.45;100.00;101376.81;5027510;28;20448;-47
2023/06/29 07:25:07;;;;;;;31.50;28.10;;;;;;;26.31;100.00;101373.13;5033444;28;20456;-43
2023/06/29 07:27:35;;;;;;;28.00;25.10;;;;;;;26.60;100.00;101373.13;5033689;28;20449;-47
2023/06/29 07:30:03;;;;;;;31.00;27.77;;;;;;;26.60;100.00;101367.66;5033462;28;20495;-49
2023/06/29 07:32:31;;;;;;;31.47;28.17;;;;;;;26.31;100.00;101364.91;5033709;28;20479;-48
2023/06/29 07:34:58;;;;;;;33.77;30.40;;;;;;;26.00;100.00;101368.94;5034009;28;20463;-44
2023/06/29 07:37:26;;;;;;;30.63;27.63;;;;;;;25.67;100.00;101367.78;5033916;28;20439;-45
2023/06/29 07:39:54;;;;;;;30.63;27.63;;;;;;;25.72;100.00;101360.34;5033245;28;20521;-43
2023/06/29 07:42:23;;;;;;;30.30;27.50;;;;;;;25.77;100.00;101365.00;5033434;28;20810;-46
2023/06/29 07:45:07;;;;;;;27.90;25.13;;;;;;;25.76;100.00;101352.41;5033953;28;20498;-44
2023/06/29 07:47:34;;;;;;;31.23;26.70;;;;;;;25.88;100.00;101350.16;5033758;28;20479;-45
2023/06/29 07:50:02;;;;;;;28.63;25.20;;;;;;;26.27;100.00;101356.47;5033158;28;20460;-45
2023/06/29 07:52:30;;;;;;;29.27;26.57;;;;;;;26.55;100.00;101351.28;5033317;28;20503;-46
2023/06/29 07:54:58;;;;;;;26.70;24.20;;;;;;;26.80;100.00;101353.78;5033856;28;20442;-46
2023/06/29 07:57:27;;;;;;;27.63;24.13;;;;;;;27.08;100.00;101352.13;5033555;28;20436;-45
2023/06/29 07:59:58;;;;;;;28.63;25.93;;;;;;;27.15;100.00;101350.66;5032758;28;20464;-48
2023/06/29 08:02:25;;;;;;;28.37;25.60;;;;;;;27.66;100.00;101341.81;5033285;28;20849;-47
2023/06/29 08:04:53;;;;;;;27.63;25.13;;;;;;;27.94;100.00;101338.91;5033429;28;20511;-46
2023/06/29 08:07:24;;;;;;;26.70;24.03;;;;;;;28.05;100.00;101342.34;5033350;28;20424;-47
2023/06/29 08:09:51;;;;;;;26.47;23.83;;;;;;;28.01;99.14;101333.06;5032877;28;20471;-46
2023/06/29 08:12:19;;;;;;;23.93;21.83;;;;;;;28.25;98.21;101339.28;5033344;28;20522;-45
2023/06/29 08:14:48;;;;;;;28.30;25.57;;;;;;;28.41;98.55;101328.84;5033234;28;20435;-45
2023/06/29 08:17:16;;;;;;;27.60;25.07;;;;;;;28.72;96.46;101329.13;5033146;28;20463;-47
2023/06/29 08:19:43;;;;;;;23.40;21.20;;;;;;;29.03;91.56;101330.97;5032245;28;20483;-48
2023/06/29 08:22:11;;;;;;;23.73;21.47;;;;;;;29.20;83.91;101333.09;5029189;28;20480;-50
2023/06/29 08:24:39;;;;;;;23.77;21.23;;;;;;;29.83;79.66;101327.63;5028555;28;20439;-45
2023/06/29 08:27:07;;;;;;;23.93;21.83;;;;;;;29.78;78.23;101316.72;5032915;28;20287;-51
2023/06/29 08:29:34;;;;;;;22.73;20.53;;;;;;;29.93;78.71;101326.56;5032438;28;20475;-45
2023/06/29 08:32:04;;;;;;;21.23;19.13;;;;;;;30.11;73.16;101315.38;5032507;28;20224;-50
2023/06/29 08:34:31;;;;;;;23.93;21.43;;;;;;;30.37;73.83;101312.00;5032797;28;20445;-49
2023/06/29 08:36:59;;;;;;;20.53;18.63;;;;;;;30.24;70.39;101319.19;5032930;28;20501;-48
2023/06/29 08:39:27;;;;;;;21.13;18.97;;;;;;;29.69;68.82;101318.56;5032271;28;20315;-48
2023/06/29 08:41:55;;;;;;;22.53;20.23;;;;;;;29.53;73.23;101317.31;5032709;28;20248;-47
2023/06/29 08:44:26;;;;;;;20.20;18.50;;;;;;;29.49;73.37;101319.84;5032635;28;20201;-46
2023/06/29 08:46:57;;;;;;;25.00;20.23;;;;;;;29.37;75.47;101319.56;5032489;28;20534;-49
2023/06/29 08:49:28;;;;;;;20.67;18.67;;;;;;;29.32;75.23;101313.38;5032239;28;20872;-49
2023/06/29 08:51:59;;;;;;;22.00;19.87;;;;;;;29.03;73.50;101309.00;5032481;28;20482;-47
2023/06/29 08:54:27;;;;;;;20.40;18.20;;;;;;;29.06;75.84;101302.91;5032613;28;20440;-52
2023/06/29 08:56:56;;;;;;;19.80;17.87;;;;;;;29.26;74.11;101304.44;5032372;28;20515;-46
2023/06/29 08:59:26;;;;;;;19.40;17.30;;;;;;;29.26;74.46;101309.13;5031967;28;20888;-48
2023/06/29 09:01:56;;;;;;;22.57;20.27;;;;;;;29.12;71.99;101303.63;5032192;28;20467;-44
2023/06/29 09:04:25;;;;;;;18.33;16.83;;;;;;;29.67;75.20;101298.03;5032326;28;20485;-48
2023/06/29 09:06:54;;;;;;;20.13;18.20;;;;;;;30.20;72.30;101300.88;5032290;28;20267;-50
2023/06/29 09:09:22;;;;;;;19.10;17.30;;;;;;;30.51;68.07;101291.53;5031592;28;20470;-45
2023/06/29 09:11:51;;;;;;;17.47;15.87;;;;;;;30.31;69.40;101294.00;5031094;28;20451;-45
2023/06/29 09:14:19;;;;;;;17.93;16.23;;;;;;;30.38;66.27;101302.59;5032184;28;20498;-48
2023/06/29 09:16:51;;;;;;;16.60;15.00;;;;;;;29.87;66.30;101292.88;5032042;28;20482;-48
2023/06/29 09:19:19;;;;;;;18.10;16.23;;;;;;;29.54;66.45;101297.75;5031737;28;20455;-48
2023/06/29 09:21:48;;;;;;;17.43;15.70;;;;;;;29.52;70.46;101288.19;5031721;28;20458;-50
2023/06/29 09:24:17;;;;;;;20.90;18.87;;;;;;;29.54;71.60;101281.25;5024217;28;20272;-49
2023/06/29 09:26:50;;;;;;;19.07;17.17;;;;;;;29.38;73.10;101287.44;5031927;28;20208;-48
2023/06/29 09:29:17;;;;;;;20.50;18.40;;;;;;;29.21;72.44;101284.47;5031614;28;20451;-45
2023/06/29 09:31:54;;;;;;;17.00;14.13;;;;;;;29.25;69.99;101282.75;5031777;28;20284;-45
2023/06/29 09:34:25;;;;;;;13.87;12.37;;;;;;;29.44;68.71;101284.25;5031891;28;20482;-47
2023/06/29 09:36:53;;;;;;;15.87;14.33;;;;;;;29.74;69.75;101280.00;5031784;28;20436;-44
2023/06/29 09:39:23;;;;;;;16.60;15.00;;;;;;;29.80;70.30;101284.25;5031349;28;20491;-47
2023/06/29 09:41:51;;;;;;;20.13;17.70;;;;;;;29.89;69.25;101284.34;5031525;28;20474;-48
2023/06/29 09:44:21;;;;;;;18.57;16.67;;;;;;;29.85;70.21;101280.56;5031875;28;20514;-52
2023/06/29 09:46:49;;;;;;;18.70;16.97;;;;;;;30.09;69.89;101273.63;5031749;28;20513;-49
2023/06/29 09:49:20;;;;;;;17.90;16.10;;;;;;;30.37;68.46;101278.97;5031159;28;20487;-53
2023/06/29 09:51:49;;;;;;;17.90;16.30;;;;;;;30.59;65.91;101273.41;5031736;28;20243;-52
2023/06/29 09:54:18;;;;;;;20.77;18.57;;;;;;;30.64;62.41;101271.34;5031703;28;20479;-47
2023/06/29 09:56:48;;;;;;;17.47;15.83;;;;;;;30.71;64.01;101284.66;5031747;28;20574;-45
2023/06/29 09:59:16;;;;;;;18.97;17.13;;;;;;;30.65;63.97;101275.72;5031087;28;20529;-47
2023/06/29 10:01:45;;;;;;;20.97;18.97;;;;;;;30.49;62.25;101273.72;5031307;28;20193;-45
2023/06/29 10:04:13;;;;;;;19.43;17.43;;;;;;;30.24;64.69;101274.34;5031832;28;20197;-46
2023/06/29 10:06:44;;;;;;;19.50;17.47;;;;;;;29.92;67.11;101278.22;5031746;28;20510;-48
2023/06/29 10:09:17;;;;;;;33.70;17.30;;;;;;;29.66;66.35;101272.47;5031053;28;20542;-50
2023/06/29 10:11:48;;;;;;;30.30;19.10;;;;;;;29.53;66.87;101270.59;5031368;28;20435;-46
2023/06/29 10:14:19;;;;;;;23.70;17.77;;;;;;;29.25;67.20;101272.59;5031281;28;20554;-45
2023/06/29 10:16:52;;;;;;;20.07;17.97;;;;;;;28.94;68.84;101280.63;5031495;28;20428;-45
2023/06/29 10:19:21;;;;;;;17.53;15.83;;;;;;;28.94;70.33;101269.66;5030911;28;20995;-45
2023/06/29 10:21:53;;;;;;;34.90;19.87;;;;;;;29.06;68.12;101271.91;5032171;28;20485;-47
2023/06/29 10:24:26;;;;;;;24.83;15.53;;;;;;;29.50;67.08;101260.22;5022485;28;20436;-47
2023/06/29 10:26:55;;;;;;;37.50;18.03;;;;;;;29.77;67.62;101260.13;5015047;28;20767;-47
2023/06/29 10:29:24;;;;;;;21.73;17.37;;;;;;;29.90;65.87;101258.44;5014788;28;20824;-48
2023/06/29 10:31:56;;;;;;;57.77;18.97;;;;;;;29.87;65.55;101262.63;5015039;28;20487;-48
2023/06/29 10:34:25;;;;;;;26.07;16.83;;;;;;;29.59;64.96;101256.44;5015285;28;20546;-47
2023/06/29 10:36:55;;;;;;;28.13;17.53;;;;;;;29.33;66.58;101260.88;5015190;28;20776;-45
2023/06/29 10:39:43;;;;;;;27.67;17.63;;;;;;;29.07;65.20;101260.59;5014826;28;20476;-45
2023/06/29 10:42:13;;;;;;;19.40;17.50;;;;;;;29.08;67.86;101254.00;5014992;28;20428;-46
2023/06/29 10:44:47;;;;;;;17.03;15.43;;;;;;;29.11;66.83;101260.78;5015157;28;20451;-47
2023/06/29 10:47:28;;;;;;;18.13;16.43;;;;;;;29.20;67.68;101258.13;5015210;28;20434;-45
2023/06/29 10:50:17;;;;;;;17.50;16.00;;;;;;;29.25;67.25;101256.09;5014436;28;20463;-45
2023/06/29 10:52:48;;;;;;;19.57;17.40;;;;;;;29.47;67.41;101256.16;5014882;28;20436;-48
2023/06/29 10:55:16;;;;;;;21.27;18.60;;;;;;;29.53;66.96;101248.59;5014844;28;20557;-47
2023/06/29 10:57:46;;;;;;;18.57;16.67;;;;;;;29.58;66.52;101257.53;5014765;28;20433;-47
2023/06/29 11:00:16;;;;;;;19.10;17.20;;;;;;;29.62;67.50;101244.00;5014083;28;20456;-44
2023/06/29 11:02:45;;;;;;;20.53;18.40;;;;;;;29.67;68.28;101248.53;5014387;28;20475;-48
2023/06/29 11:05:14;;;;;;;19.57;17.47;;;;;;;29.78;66.69;101244.44;5014719;28;20925;-45
2023/06/29 11:07:43;;;;;;;17.67;16.00;;;;;;;29.89;66.81;101243.91;5014585;28;20432;-47
2023/06/29 11:10:12;;;;;;;18.50;16.80;;;;;;;29.82;65.60;101246.28;5014191;28;20460;-45
2023/06/29 11:12:40;;;;;;;18.33;16.50;;;;;;;29.62;66.46;101238.50;5014168;28;20437;-46